createdAt,value
2022-11-28T00:00:33.841Z,65.86
2022-11-28T00:03:25.808Z,64.13
2022-11-28T00:05:56.596Z,62.04
2022-11-28T00:08:27.590Z,61.24
2022-11-28T00:10:58.159Z,60.58
2022-11-28T00:13:29.206Z,59.86
2022-11-28T00:16:00.592Z,58.83
2022-11-28T00:18:31.940Z,59.17
2022-11-28T00:21:03.631Z,61.09
2022-11-28T00:23:34.849Z,63.94
2022-11-28T00:26:06.401Z,65.54
2022-11-28T00:28:37.183Z,64.34
2022-11-28T00:31:08.533Z,61.02
2022-11-28T00:33:39.847Z,60.32
2022-11-28T00:36:11.430Z,60.14
2022-11-28T00:38:42.946Z,58.61
2022-11-28T00:41:14.903Z,58.85
2022-11-28T00:43:49.539Z,60.76
2022-11-28T00:46:21.665Z,65.53
2022-11-28T00:48:53.115Z,66.12
2022-11-28T00:51:24.587Z,64.41
2022-11-28T00:53:56.393Z,61.52
2022-11-28T00:56:27.611Z,60.40
2022-11-28T00:58:58.790Z,57.41
2022-11-28T01:01:38.327Z,57.63
2022-11-28T01:04:10.968Z,59.01
2022-11-28T01:06:43.276Z,62.89
2022-11-28T01:09:16.324Z,65.47
2022-11-28T01:11:49.550Z,63.44
2022-11-28T01:14:21.710Z,62.15
2022-11-28T01:16:53.126Z,60.20
2022-11-28T01:19:24.204Z,57.27
2022-11-28T01:21:54.935Z,57.65
2022-11-28T01:24:25.834Z,61.62
2022-11-28T01:26:56.223Z,65.19
2022-11-28T01:29:27.550Z,64.77
2022-11-28T01:31:58.949Z,63.05
2022-11-28T01:34:29.837Z,61.16
2022-11-28T01:37:02.073Z,60.69
2022-11-28T01:39:33.310Z,58.88
2022-11-28T01:42:03.825Z,59.24
2022-11-28T01:44:51.641Z,63.45
2022-11-28T01:47:23.774Z,64.42
2022-11-28T01:49:55.842Z,62.40
2022-11-28T01:52:26.633Z,61.37
2022-11-28T01:54:59.911Z,60.44
2022-11-28T01:57:31.016Z,60.53
2022-11-28T02:00:05.732Z,58.82
2022-11-28T02:02:45.675Z,59.18
2022-11-28T02:05:17.945Z,63.27
2022-11-28T02:07:48.656Z,64.38
2022-11-28T02:10:20.207Z,63.07
2022-11-28T02:13:01.151Z,61.18
2022-11-28T02:15:41.813Z,60.69
2022-11-28T02:18:23.679Z,58.31
2022-11-28T02:21:03.901Z,59.21
2022-11-28T02:23:43.100Z,62.09
2022-11-28T02:26:24.955Z,66.23
2022-11-28T02:29:12.182Z,65.72
2022-11-28T02:31:56.797Z,63.53
2022-11-28T02:34:29.939Z,61.94
2022-11-28T02:37:04.648Z,60.05
2022-11-28T02:39:39.075Z,58.39
2022-11-28T02:42:13.594Z,59.17
2022-11-28T02:44:46.064Z,63.19
2022-11-28T02:47:19.670Z,65.80
2022-11-28T02:49:52.965Z,64.68
2022-11-28T02:52:25.839Z,62.45
2022-11-28T02:54:56.935Z,61.23
2022-11-28T02:57:30.590Z,59.33
2022-11-28T03:00:01.733Z,59.01
2022-11-28T03:02:33.449Z,63.05
2022-11-28T03:05:07.181Z,64.60
2022-11-28T03:07:47.940Z,63.16
2022-11-28T03:10:24.768Z,62.07
2022-11-28T03:12:59.390Z,60.90
2022-11-28T03:15:33.893Z,60.20
2022-11-28T03:18:12.764Z,59.12
2022-11-28T03:20:46.650Z,59.65
2022-11-28T03:23:18.464Z,64.59
2022-11-28T03:25:56.979Z,64.75
2022-11-28T03:28:32.558Z,62.34
2022-11-28T03:31:04.473Z,61.23
2022-11-28T03:33:37.905Z,60.39
2022-11-28T03:36:10.782Z,59.80
2022-11-28T03:38:43.485Z,58.71
2022-11-28T03:41:16.457Z,60.81
2022-11-28T03:43:50.893Z,64.20
2022-11-28T03:46:23.894Z,65.54
2022-11-28T03:48:56.700Z,63.48
2022-11-28T03:51:30.187Z,61.39
2022-11-28T03:54:03.181Z,59.45
2022-11-28T03:56:37.773Z,58.57
2022-11-28T03:59:10.953Z,62.48
2022-11-28T04:01:46.033Z,65.39
2022-11-28T04:04:19.537Z,63.76
2022-11-28T04:06:54.590Z,62.55
2022-11-28T04:09:32.275Z,61.10
2022-11-28T04:12:06.184Z,60.14
2022-11-28T04:14:39.052Z,58.37
2022-11-28T04:17:12.264Z,60.07
2022-11-28T04:19:41.456Z,63.19
2022-11-28T04:22:14.508Z,65.37
2022-11-28T04:24:48.575Z,64.31
2022-11-28T04:27:22.783Z,62.70
2022-11-28T04:29:55.343Z,61.13
2022-11-28T04:32:27.104Z,59.13
2022-11-28T04:36:06.957Z,58.65
2022-11-28T04:38:39.392Z,62.85
2022-11-28T04:41:12.829Z,63.47
2022-11-28T04:43:47.621Z,62.38
2022-11-28T04:46:20.366Z,61.47
2022-11-28T04:48:51.069Z,59.46
2022-11-28T04:51:24.003Z,57.82
2022-11-28T04:53:58.435Z,59.02
2022-11-28T04:56:30.453Z,62.57
2022-11-28T04:59:01.960Z,65.10
2022-11-28T05:01:33.820Z,63.85
2022-11-28T05:04:04.369Z,61.80
2022-11-28T05:06:36.565Z,60.11
2022-11-28T05:09:07.739Z,58.77
2022-11-28T05:11:39.055Z,59.76
2022-11-28T05:14:09.983Z,63.59
2022-11-28T05:16:40.958Z,64.65
2022-11-28T05:19:11.641Z,62.38
2022-11-28T05:21:42.928Z,60.94
2022-11-28T05:24:13.920Z,60.13
2022-11-28T05:26:44.797Z,58.27
2022-11-28T05:29:15.392Z,58.69
2022-11-28T05:31:46.529Z,62.39
2022-11-28T05:34:17.368Z,63.90
2022-11-28T05:36:48.736Z,62.50
2022-11-28T05:39:19.248Z,60.44
2022-11-28T05:41:50.799Z,59.19
2022-11-28T05:44:26.602Z,59.61
2022-11-28T05:46:58.212Z,61.49
2022-11-28T05:49:29.197Z,66.20
2022-11-28T05:52:00.291Z,66.14
2022-11-28T05:54:32.044Z,64.09
2022-11-28T05:57:03.189Z,62.19
2022-11-28T05:59:33.876Z,60.27
2022-11-28T06:02:04.922Z,58.34
2022-11-28T06:04:35.561Z,60.66
2022-11-28T06:07:06.941Z,63.97
2022-11-28T06:09:37.977Z,64.90
2022-11-28T06:12:09.582Z,62.75
2022-11-28T06:14:40.680Z,61.46
2022-11-28T06:17:11.614Z,60.17
2022-11-28T06:19:42.401Z,58.01
2022-11-28T06:22:13.705Z,58.90
2022-11-28T06:24:44.322Z,63.01
2022-11-28T06:27:15.372Z,64.58
2022-11-28T06:29:45.761Z,63.18
2022-11-28T06:32:21.881Z,61.44
2022-11-28T06:34:52.793Z,60.40
2022-11-28T06:37:23.856Z,58.59
2022-11-28T06:39:54.352Z,59.26
2022-11-28T06:42:25.290Z,61.50
2022-11-28T06:44:55.719Z,65.67
2022-11-28T06:47:26.654Z,65.77
2022-11-28T06:49:57.277Z,63.19
2022-11-28T06:52:28.831Z,61.44
2022-11-28T06:54:59.990Z,60.21
2022-11-28T06:57:32.845Z,57.97
2022-11-28T07:00:03.699Z,58.81
2022-11-28T07:02:34.550Z,62.45
2022-11-28T07:05:06.047Z,65.17
2022-11-28T07:07:52.770Z,63.50
2022-11-28T07:10:25.222Z,61.63
2022-11-28T07:12:56.550Z,60.00
2022-11-28T07:15:27.548Z,57.42
2022-11-28T07:17:58.569Z,58.24
2022-11-28T07:20:29.162Z,62.22
2022-11-28T07:23:01.701Z,65.18
2022-11-28T07:25:32.427Z,63.08
2022-11-28T07:28:03.397Z,62.04
2022-11-28T07:30:34.475Z,61.09
2022-11-28T07:33:05.247Z,59.17
2022-11-28T07:35:35.975Z,59.98
2022-11-28T07:38:08.012Z,63.34
2022-11-28T07:40:39.295Z,64.81
2022-11-28T07:43:10.524Z,63.13
2022-11-28T07:45:59.334Z,60.90
2022-11-28T07:48:31.556Z,58.68
2022-11-28T07:51:05.423Z,58.30
2022-11-28T07:53:37.673Z,60.99
2022-11-28T07:56:10.082Z,65.28
2022-11-28T07:58:40.841Z,65.97
2022-11-28T08:01:12.473Z,62.80
2022-11-28T08:03:44.790Z,61.19
2022-11-28T08:06:17.286Z,58.88
2022-11-28T08:08:48.627Z,58.92
2022-11-28T08:11:20.035Z,61.65
2022-11-28T08:13:51.910Z,64.40
2022-11-28T08:16:25.226Z,64.48
2022-11-28T08:18:56.716Z,62.20
2022-11-28T08:21:28.823Z,60.26
2022-11-28T08:24:00.433Z,56.99
2022-11-28T08:26:32.175Z,58.68
2022-11-28T08:29:03.770Z,61.83
2022-11-28T08:31:34.978Z,65.06
2022-11-28T08:34:07.143Z,64.44
2022-11-28T08:36:38.391Z,61.69
2022-11-28T08:39:22.963Z,60.31
2022-11-28T08:41:57.553Z,58.15
2022-11-28T08:44:30.627Z,58.81
2022-11-28T08:47:01.337Z,60.93
2022-11-28T08:49:32.732Z,64.10
2022-11-28T08:52:03.981Z,64.53
2022-11-28T08:54:35.066Z,62.29
2022-11-28T08:57:05.857Z,58.87
2022-11-28T08:59:37.548Z,58.52
2022-11-28T09:02:08.390Z,61.14
2022-11-28T09:04:39.734Z,63.43
2022-11-28T09:07:10.264Z,64.11
2022-11-28T09:09:41.652Z,61.61
2022-11-28T09:12:12.340Z,58.72
2022-11-28T09:14:43.508Z,58.69
2022-11-28T09:17:16.145Z,62.10
2022-11-28T09:19:47.508Z,63.95
2022-11-28T09:22:18.104Z,61.49
2022-11-28T09:24:48.981Z,58.41
2022-11-28T09:27:19.618Z,57.93
2022-11-28T09:29:50.747Z,62.91
2022-11-28T09:32:21.589Z,63.89
2022-11-28T09:34:55.699Z,61.45
2022-11-28T09:37:26.845Z,59.52
2022-11-28T09:40:12.583Z,58.19
2022-11-28T09:42:45.142Z,60.82
2022-11-28T09:45:17.162Z,63.16
2022-11-28T09:47:49.957Z,63.23
2022-11-28T09:50:23.742Z,60.59
2022-11-28T09:53:00.122Z,57.57
2022-11-28T09:55:35.258Z,58.78
2022-11-28T09:58:07.917Z,60.46
2022-11-28T10:00:40.342Z,63.22
2022-11-28T10:03:26.647Z,63.74
2022-11-28T10:06:03.351Z,60.00
2022-11-28T10:08:39.179Z,57.87
2022-11-28T10:11:16.286Z,58.67
2022-11-28T10:14:07.856Z,62.14
2022-11-28T10:16:45.132Z,63.75
2022-11-28T10:19:46.112Z,60.84
2022-11-28T10:22:11.404Z,57.32
2022-11-28T10:24:44.124Z,57.67
2022-11-28T10:27:15.689Z,58.95
2022-11-28T10:29:48.791Z,62.89
2022-11-28T10:32:18.084Z,63.26
2022-11-28T10:34:51.453Z,62.51
2022-11-28T10:37:25.492Z,57.70
2022-11-28T10:39:57.962Z,57.56
2022-11-28T10:42:32.378Z,60.48
2022-11-28T10:45:07.756Z,60.36
2022-11-28T10:47:55.457Z,63.18
2022-11-28T10:50:33.997Z,62.77
2022-11-28T10:53:08.132Z,57.87
2022-11-28T10:55:44.558Z,56.25
2022-11-28T10:58:18.332Z,60.04
2022-11-28T11:00:50.731Z,61.92
2022-11-28T11:03:23.724Z,62.87
2022-11-28T11:05:54.658Z,60.11
2022-11-28T11:08:26.970Z,56.40
2022-11-28T11:11:01.502Z,57.52
2022-11-28T11:13:33.310Z,57.98
2022-11-28T11:16:05.612Z,61.46
2022-11-28T11:18:37.903Z,62.85
2022-11-28T11:21:15.998Z,62.46
2022-11-28T11:23:47.686Z,57.60
2022-11-28T11:26:24.816Z,56.71
2022-11-28T11:28:56.406Z,59.26
2022-11-28T11:31:28.116Z,61.63
2022-11-28T11:34:05.105Z,62.87
2022-11-28T11:36:39.405Z,61.89
2022-11-28T11:39:18.193Z,57.58
2022-11-28T11:41:49.674Z,56.18
2022-11-28T11:44:29.477Z,58.05
2022-11-28T11:47:03.326Z,59.97
2022-11-28T11:49:36.024Z,60.63
2022-11-28T11:52:14.953Z,63.97
2022-11-28T11:54:56.621Z,62.50
2022-11-28T11:57:35.219Z,57.49
2022-11-28T12:00:08.276Z,58.20
2022-11-28T12:02:47.656Z,61.15
2022-11-28T12:05:19.439Z,62.98
2022-11-28T12:07:54.042Z,62.26
2022-11-28T12:10:26.334Z,57.88
2022-11-28T12:12:57.144Z,58.03
2022-11-28T12:15:32.550Z,60.04
2022-11-28T12:18:15.247Z,62.24
2022-11-28T12:20:54.201Z,63.11
2022-11-28T12:23:34.899Z,60.50
2022-11-28T12:26:09.648Z,56.92
2022-11-28T12:28:49.990Z,57.17
2022-11-28T12:31:28.193Z,58.31
2022-11-28T12:34:05.089Z,60.20
2022-11-28T12:36:39.283Z,63.19
2022-11-28T12:39:19.284Z,63.98
2022-11-28T12:42:06.464Z,58.11
2022-11-28T12:44:41.150Z,56.27
2022-11-28T12:47:15.505Z,58.06
2022-11-28T12:49:52.447Z,58.49
2022-11-28T12:52:27.097Z,61.38
2022-11-28T12:55:09.299Z,63.57
2022-11-28T12:57:44.862Z,61.24
2022-11-28T13:00:16.144Z,57.32
2022-11-28T13:02:52.331Z,58.26
2022-11-28T13:05:37.227Z,59.16
2022-11-28T13:08:17.222Z,61.19
2022-11-28T13:10:51.376Z,63.45
2022-11-28T13:13:26.003Z,63.07
2022-11-28T13:16:00.475Z,58.70
2022-11-28T13:18:40.014Z,57.62
2022-11-28T13:21:19.656Z,58.22
2022-11-28T13:23:53.447Z,60.48
2022-11-28T13:26:32.869Z,62.43
2022-11-28T13:29:07.746Z,61.43
2022-11-28T13:31:41.365Z,58.18
2022-11-28T13:34:14.287Z,57.33
2022-11-28T13:39:43.272Z,60.96
2022-11-28T13:42:58.884Z,62.02
2022-11-28T13:45:25.059Z,64.00
2022-11-28T13:48:00.742Z,60.32
2022-11-28T13:50:36.285Z,57.75
2022-11-28T13:56:27.944Z,61.30
2022-11-28T13:59:01.014Z,63.23
2022-11-28T14:01:44.160Z,62.39
2022-11-28T14:04:16.230Z,56.76
2022-11-28T14:06:49.496Z,56.53
2022-11-28T14:09:30.859Z,58.69
2022-11-28T14:12:11.227Z,60.29
2022-11-28T14:14:53.536Z,63.19
2022-11-28T14:17:31.954Z,62.83
2022-11-28T14:20:11.998Z,59.27
2022-11-28T14:22:50.513Z,57.00
2022-11-28T14:25:25.489Z,59.15
2022-11-28T14:27:57.925Z,60.14
2022-11-28T14:30:32.161Z,62.25
2022-11-28T14:33:05.696Z,62.73
2022-11-28T14:35:34.726Z,59.09
2022-11-28T14:38:27.630Z,57.84
2022-11-28T14:41:03.551Z,59.54
2022-11-28T14:43:35.145Z,61.73
2022-11-28T14:46:26.677Z,64.31
2022-11-28T14:49:23.869Z,62.71
2022-11-28T14:52:37.180Z,60.16
2022-11-28T14:55:01.925Z,55.61
2022-11-28T14:57:33.038Z,57.25
2022-11-28T15:00:16.667Z,59.74
2022-11-28T15:02:53.254Z,61.07
2022-11-28T15:05:40.763Z,64.95
2022-11-28T15:08:32.899Z,65.47
2022-11-28T15:11:11.912Z,60.66
2022-11-28T15:13:52.125Z,57.45
2022-11-28T15:16:24.184Z,58.60
2022-11-28T15:18:57.658Z,61.07
2022-11-28T15:21:28.841Z,61.92
2022-11-28T15:23:59.479Z,65.15
2022-11-28T15:26:31.671Z,64.99
2022-11-28T15:29:14.197Z,61.96
2022-11-28T15:31:49.419Z,59.37
2022-11-28T15:34:24.682Z,57.22
2022-11-28T15:36:56.116Z,59.47
2022-11-28T15:39:28.801Z,61.95
2022-11-28T15:42:01.369Z,64.86
2022-11-28T15:44:32.817Z,62.44
2022-11-28T15:47:03.675Z,61.17
2022-11-28T15:49:35.578Z,58.18
2022-11-28T15:52:06.663Z,56.93
2022-11-28T15:54:41.582Z,60.22
2022-11-28T15:57:20.494Z,61.01
2022-11-28T15:59:54.012Z,64.34
2022-11-28T16:02:30.306Z,65.46
2022-11-28T16:05:22.379Z,62.79
2022-11-28T16:07:53.498Z,58.73
2022-11-28T16:10:25.747Z,58.10
2022-11-28T16:12:59.864Z,58.68
2022-11-28T16:15:31.376Z,60.06
2022-11-28T16:18:02.044Z,64.11
2022-11-28T16:20:35.523Z,65.01
2022-11-28T16:23:04.406Z,62.21
2022-11-28T16:25:35.239Z,61.03
2022-11-28T16:28:06.358Z,57.92
2022-11-28T16:30:38.294Z,58.72
2022-11-28T16:33:22.401Z,60.70
2022-11-28T16:36:12.584Z,64.09
2022-11-28T16:38:43.929Z,65.19
2022-11-28T16:41:18.649Z,62.66
2022-11-28T16:43:51.538Z,59.09
2022-11-28T16:46:23.293Z,58.02
2022-11-28T16:48:57.155Z,59.71
2022-11-28T16:51:38.002Z,60.97
2022-11-28T16:54:28.432Z,65.49
2022-11-28T16:57:09.747Z,66.25
2022-11-28T16:59:40.622Z,63.51
2022-11-28T17:02:15.767Z,60.88
2022-11-28T17:04:47.583Z,57.25
2022-11-28T17:07:20.501Z,57.48
2022-11-28T17:09:51.526Z,61.58
2022-11-28T17:12:25.667Z,65.17
2022-11-28T17:14:56.557Z,64.65
2022-11-28T17:17:28.632Z,61.69
2022-11-28T17:19:59.463Z,59.34
2022-11-28T17:22:40.386Z,56.52
2022-11-28T17:25:16.183Z,56.72
2022-11-28T17:27:48.374Z,58.42
2022-11-28T17:30:20.456Z,60.10
2022-11-28T17:32:52.446Z,64.03
2022-11-28T17:35:24.451Z,66.52
2022-11-28T17:37:55.264Z,65.21
2022-11-28T17:40:36.877Z,62.95
2022-11-28T17:43:10.659Z,61.24
2022-11-28T17:45:42.007Z,57.96
2022-11-28T17:48:16.238Z,56.74
2022-11-28T17:50:48.796Z,58.11
2022-11-28T17:53:20.377Z,59.74
2022-11-28T17:55:58.765Z,64.30
2022-11-28T17:58:29.522Z,67.32
2022-11-28T18:01:01.224Z,64.40
2022-11-28T18:03:32.201Z,61.43
2022-11-28T18:06:02.956Z,58.68
2022-11-28T18:08:34.044Z,57.69
2022-11-28T18:11:05.518Z,58.54
2022-11-28T18:13:36.457Z,61.20
2022-11-28T18:16:08.039Z,65.34
2022-11-28T18:18:39.418Z,66.45
2022-11-28T18:21:11.069Z,64.98
2022-11-28T18:23:43.281Z,63.05
2022-11-28T18:26:16.372Z,60.89
2022-11-28T18:28:47.407Z,58.81
2022-11-28T18:31:19.530Z,57.68
2022-11-28T18:33:51.084Z,60.15
2022-11-28T18:36:22.929Z,64.07
2022-11-28T18:41:42.854Z,64.02
2022-11-28T18:44:13.483Z,61.11
2022-11-28T18:46:44.991Z,58.98
2022-11-28T18:49:16.826Z,57.08
2022-11-28T18:51:48.584Z,58.47
2022-11-28T18:54:21.562Z,60.97
2022-11-28T18:56:53.035Z,65.10
2022-11-28T18:59:24.167Z,67.12
2022-11-28T19:01:55.863Z,64.19
2022-11-28T19:04:26.763Z,60.81
2022-11-28T19:06:59.232Z,58.58
2022-11-28T19:09:30.582Z,57.84
2022-11-28T19:12:01.724Z,60.37
2022-11-28T19:14:32.928Z,64.31
2022-11-28T19:17:04.015Z,64.79
2022-11-28T19:19:35.764Z,64.40
2022-11-28T19:22:10.803Z,61.39
2022-11-28T19:24:42.864Z,60.13
2022-11-28T19:27:14.699Z,57.42
2022-11-28T19:29:46.464Z,56.98
2022-11-28T19:32:18.293Z,58.86
2022-11-28T19:34:52.460Z,61.07
2022-11-28T19:37:22.886Z,66.39
2022-11-28T19:40:01.074Z,68.39
2022-11-28T19:42:33.843Z,65.56
2022-11-28T19:45:05.007Z,62.29
2022-11-28T19:47:36.532Z,60.20
2022-11-28T19:50:12.253Z,58.03
2022-11-28T19:52:45.202Z,58.76
2022-11-28T19:55:15.922Z,61.62
2022-11-28T19:57:47.744Z,65.37
2022-11-28T20:00:19.825Z,67.39
2022-11-28T20:02:51.002Z,64.99
2022-11-28T20:05:22.108Z,62.74
2022-11-28T20:07:58.489Z,61.34
2022-11-28T20:10:30.269Z,59.29
2022-11-28T20:13:01.934Z,57.11
2022-11-28T20:15:35.647Z,59.87
2022-11-28T20:18:07.887Z,63.77
2022-11-28T20:20:39.200Z,65.88
2022-11-28T20:23:10.283Z,64.18
2022-11-28T20:25:41.807Z,61.53
2022-11-28T20:28:12.969Z,59.47
2022-11-28T20:30:44.719Z,58.49
2022-11-28T20:33:15.568Z,59.61
2022-11-28T20:35:46.290Z,63.73
2022-11-28T20:38:17.264Z,66.62
2022-11-28T20:40:48.268Z,64.31
2022-11-28T20:43:19.176Z,62.61
2022-11-28T20:45:50.239Z,61.05
2022-11-28T20:48:21.209Z,60.03
2022-11-28T20:50:51.888Z,58.28
2022-11-28T20:53:26.802Z,59.04
2022-11-28T20:56:01.850Z,60.33
2022-11-28T20:58:32.588Z,65.11
2022-11-28T21:01:03.461Z,65.98
2022-11-28T21:03:39.001Z,64.53
2022-11-28T21:06:10.478Z,62.42
2022-11-28T21:08:41.286Z,61.48
2022-11-28T21:11:25.265Z,59.61
2022-11-28T21:14:06.209Z,57.46
2022-11-28T21:16:37.304Z,60.94
2022-11-28T21:19:09.668Z,65.07
2022-11-28T21:21:40.854Z,65.64
2022-11-28T21:24:12.829Z,63.71
2022-11-28T21:26:48.151Z,62.98
2022-11-28T21:29:22.277Z,61.33
2022-11-28T21:31:53.615Z,60.19
2022-11-28T21:34:24.681Z,57.51
2022-11-28T21:36:56.190Z,57.03
2022-11-28T21:39:27.208Z,59.42
2022-11-28T21:41:58.251Z,62.35
2022-11-28T21:44:28.982Z,66.74
2022-11-28T21:46:59.562Z,66.47
2022-11-28T21:49:40.588Z,63.25
2022-11-28T21:52:11.875Z,61.20
2022-11-28T21:54:42.711Z,60.43
2022-11-28T21:57:13.314Z,58.65
2022-11-28T21:59:44.371Z,56.87
2022-11-28T22:02:15.584Z,60.07
2022-11-28T22:04:46.899Z,64.28
2022-11-28T22:07:17.966Z,65.70
2022-11-28T22:09:49.679Z,63.63
2022-11-28T22:12:20.817Z,61.94
2022-11-28T22:14:57.369Z,60.17
2022-11-28T22:17:32.853Z,57.62
2022-11-28T22:20:03.660Z,58.00
2022-11-28T22:22:34.495Z,60.77
2022-11-28T22:25:06.889Z,65.49
2022-11-28T22:27:38.834Z,67.12
2022-11-28T22:30:10.374Z,63.62
2022-11-28T22:32:41.732Z,60.99
2022-11-28T22:35:13.064Z,58.65
2022-11-28T22:37:44.886Z,57.94
2022-11-28T22:40:16.956Z,59.89
2022-11-28T22:42:47.656Z,62.03
2022-11-28T22:45:18.467Z,66.14
2022-11-28T22:47:49.714Z,68.18
2022-11-28T22:50:20.858Z,64.98
2022-11-28T22:52:51.602Z,61.88
2022-11-28T22:55:22.653Z,60.36
2022-11-28T22:58:27.884Z,57.83
2022-11-28T23:00:59.391Z,58.51
2022-11-28T23:03:30.324Z,61.26
2022-11-28T23:06:04.639Z,64.47
2022-11-28T23:08:35.752Z,67.34
2022-11-28T23:11:08.662Z,65.79
2022-11-28T23:13:40.063Z,63.29
2022-11-28T23:16:15.594Z,60.94
2022-11-28T23:18:47.773Z,60.17
2022-11-28T23:21:19.027Z,58.02
2022-11-28T23:23:49.709Z,57.16
2022-11-28T23:26:21.567Z,61.37
2022-11-28T23:28:52.870Z,64.12
2022-11-28T23:31:24.585Z,66.46
2022-11-28T23:33:55.450Z,64.39
2022-11-28T23:36:27.552Z,62.30
2022-11-28T23:38:59.173Z,59.99
2022-11-28T23:41:30.676Z,58.07
2022-11-28T23:44:01.653Z,58.08
2022-11-28T23:46:33.462Z,60.41
2022-11-28T23:49:05.583Z,65.25
2022-11-28T23:51:37.034Z,66.57
2022-11-28T23:54:08.380Z,64.77
2022-11-28T23:56:40.396Z,62.51
2022-11-28T23:59:11.723Z,60.55
